createdAt,value
2023-03-16T00:00:52.710Z,-1.40
2023-03-16T00:03:19.735Z,-1.50
2023-03-16T00:05:47.574Z,-1.30
2023-03-16T00:08:14.619Z,-1.50
2023-03-16T00:10:46.737Z,-1.60
2023-03-16T00:13:17.067Z,-1.60
2023-03-16T00:15:51.251Z,-1.60
2023-03-16T00:18:18.104Z,-1.60
2023-03-16T00:20:44.808Z,-1.60
2023-03-16T00:23:11.960Z,-1.60
2023-03-16T00:25:38.623Z,-1.60
2023-03-16T00:28:05.688Z,-1.70
2023-03-16T00:30:32.774Z,-1.40
2023-03-16T00:32:59.610Z,-1.70
2023-03-16T00:35:26.350Z,-1.60
2023-03-16T00:37:57.299Z,-1.60
2023-03-16T00:40:24.358Z,-1.60
2023-03-16T00:42:51.025Z,-1.70
2023-03-16T00:45:17.844Z,-1.70
2023-03-16T00:47:44.937Z,-1.60
2023-03-16T00:50:12.189Z,-1.60
2023-03-16T00:52:39.016Z,-1.60
2023-03-16T00:55:05.971Z,-1.60
2023-03-16T00:57:32.676Z,-1.60
2023-03-16T01:00:03.034Z,-1.60
2023-03-16T01:02:29.645Z,-1.50
2023-03-16T01:04:56.316Z,-1.60
2023-03-16T01:07:23.024Z,-1.60
2023-03-16T01:09:49.769Z,-1.60
2023-03-16T01:12:20.629Z,-1.70
2023-03-16T01:14:47.729Z,-1.70
2023-03-16T01:17:15.039Z,-1.70
2023-03-16T01:19:42.035Z,-1.80
2023-03-16T01:22:09.879Z,-1.80
2023-03-16T01:24:37.292Z,-1.80
2023-03-16T01:27:04.581Z,-1.80
2023-03-16T01:29:31.935Z,-1.80
2023-03-16T01:31:58.702Z,-1.80
2023-03-16T01:34:25.546Z,-1.80
2023-03-16T01:36:52.199Z,-1.80
2023-03-16T01:39:18.935Z,-1.80
2023-03-16T01:41:46.629Z,-1.80
2023-03-16T01:44:22.386Z,-1.80
2023-03-16T01:46:49.086Z,-1.80
2023-03-16T01:49:48.259Z,-1.80
2023-03-16T01:52:16.690Z,-1.80
2023-03-16T01:54:48.564Z,-1.90
2023-03-16T01:57:16.372Z,-1.80
2023-03-16T01:59:44.783Z,-1.90
2023-03-16T02:02:13.365Z,-2.00
2023-03-16T02:04:40.101Z,-1.90
2023-03-16T02:07:08.092Z,-1.90
2023-03-16T02:09:36.467Z,-1.90
2023-03-16T02:12:03.881Z,-1.90
2023-03-16T02:14:30.670Z,-1.90
2023-03-16T02:16:57.629Z,-1.90
2023-03-16T02:19:50.521Z,-1.90
2023-03-16T02:22:17.893Z,-1.90
2023-03-16T02:24:45.029Z,-2.00
2023-03-16T02:27:13.825Z,-2.10
2023-03-16T02:29:40.731Z,-2.10
2023-03-16T02:32:07.542Z,-2.00
2023-03-16T02:34:35.143Z,-1.60
2023-03-16T02:37:02.597Z,-2.00
2023-03-16T02:39:29.375Z,-2.00
2023-03-16T02:41:56.110Z,-2.00
2023-03-16T02:44:28.016Z,-1.70
2023-03-16T02:46:56.054Z,-2.00
2023-03-16T02:49:25.847Z,-2.00
2023-03-16T02:51:52.500Z,-2.00
2023-03-16T02:54:19.618Z,-2.00
2023-03-16T02:56:46.351Z,-2.00
2023-03-16T02:59:13.454Z,-2.00
2023-03-16T03:01:40.084Z,-2.00
2023-03-16T03:04:06.949Z,-2.00
2023-03-16T03:06:34.156Z,-2.00
2023-03-16T03:09:02.083Z,-2.10
2023-03-16T03:11:29.150Z,-2.10
2023-03-16T03:13:55.877Z,-2.00
2023-03-16T03:16:22.960Z,-2.00
2023-03-16T03:18:50.112Z,-2.00
2023-03-16T03:21:16.909Z,-2.00
2023-03-16T03:23:46.664Z,-2.00
2023-03-16T03:26:17.149Z,-2.10
2023-03-16T03:28:44.730Z,-2.10
2023-03-16T03:31:18.532Z,-2.10
2023-03-16T03:33:45.307Z,-2.10
2023-03-16T03:36:12.163Z,-2.10
2023-03-16T03:38:39.204Z,-2.10
2023-03-16T03:41:08.296Z,-2.20
2023-03-16T03:43:35.260Z,-2.10
2023-03-16T03:46:03.065Z,-2.10
2023-03-16T03:48:30.163Z,-2.10
2023-03-16T03:50:56.922Z,-2.10
2023-03-16T03:53:23.775Z,-2.10
2023-03-16T03:55:50.690Z,-2.10
2023-03-16T03:58:17.918Z,-2.10
2023-03-16T04:00:45.381Z,-2.10
2023-03-16T04:03:12.285Z,-2.10
2023-03-16T04:05:39.062Z,-2.00
2023-03-16T04:08:06.706Z,-2.00
2023-03-16T04:10:33.669Z,-2.00
2023-03-16T04:13:00.937Z,-2.10
2023-03-16T04:15:27.730Z,-2.00
2023-03-16T04:17:54.480Z,-2.00
2023-03-16T04:20:23.299Z,-2.10
2023-03-16T04:22:50.017Z,-2.10
2023-03-16T04:25:17.511Z,-2.10
2023-03-16T04:27:44.505Z,-2.00
2023-03-16T04:30:12.955Z,-2.00
2023-03-16T04:32:40.160Z,-2.00
2023-03-16T04:35:07.041Z,-1.90
2023-03-16T04:37:34.627Z,-1.90
2023-03-16T04:40:10.853Z,-1.90
2023-03-16T04:42:37.920Z,-1.90
2023-03-16T04:45:04.861Z,-2.00
2023-03-16T04:47:33.930Z,-1.90
2023-03-16T04:50:01.117Z,-1.90
2023-03-16T04:52:28.616Z,-1.90
2023-03-16T04:54:55.471Z,-1.80
2023-03-16T04:57:22.597Z,-1.70
2023-03-16T04:59:49.828Z,-1.70
2023-03-16T05:02:17.655Z,-1.70
2023-03-16T05:04:44.259Z,-1.70
2023-03-16T05:07:11.567Z,-1.70
2023-03-16T05:09:38.191Z,-1.70
2023-03-16T05:12:04.920Z,-1.60
2023-03-16T05:14:31.571Z,-1.60
2023-03-16T05:16:58.382Z,-1.60
2023-03-16T05:19:25.070Z,-1.60
2023-03-16T05:21:51.770Z,-1.20
2023-03-16T05:24:18.432Z,-1.50
2023-03-16T05:26:45.573Z,-1.40
2023-03-16T05:29:12.574Z,-1.30
2023-03-16T05:31:39.553Z,-1.30
2023-03-16T05:34:06.692Z,-1.20
2023-03-16T05:36:35.894Z,-1.10
2023-03-16T05:39:02.806Z,-1.10
2023-03-16T05:41:30.096Z,-1.00
2023-03-16T05:43:56.815Z,-0.90
2023-03-16T05:46:23.673Z,-0.90
2023-03-16T05:48:50.443Z,-0.80
2023-03-16T05:51:17.051Z,-0.70
2023-03-16T05:53:46.631Z,-0.60
2023-03-16T05:56:13.283Z,-0.50
2023-03-16T05:58:40.013Z,-0.30
2023-03-16T06:01:08.173Z,-0.20
2023-03-16T06:03:34.988Z,0.00
2023-03-16T06:06:02.208Z,0.00
2023-03-16T06:08:28.986Z,0.30
2023-03-16T06:10:55.625Z,0.50
2023-03-16T06:13:25.464Z,0.70
2023-03-16T06:15:52.165Z,1.30
2023-03-16T06:18:18.865Z,2.30
2023-03-16T06:20:47.246Z,4.20
2023-03-16T06:23:14.050Z,6.20
2023-03-16T06:25:40.998Z,8.10
2023-03-16T06:28:07.998Z,9.20
2023-03-16T06:30:34.656Z,9.20
2023-03-16T06:33:02.185Z,8.90
2023-03-16T06:35:29.095Z,9.40
2023-03-16T06:37:58.772Z,10.40
2023-03-16T06:40:25.923Z,11.50
2023-03-16T06:42:53.609Z,12.30
2023-03-16T06:45:22.217Z,13.20
2023-03-16T06:47:49.032Z,13.40
2023-03-16T06:50:15.816Z,13.40
2023-03-16T06:52:42.536Z,13.20
2023-03-16T06:55:09.664Z,13.40
2023-03-16T06:57:36.405Z,13.60
2023-03-16T07:00:04.534Z,15.30
2023-03-16T07:02:32.255Z,16.00
2023-03-16T07:04:58.906Z,15.90
2023-03-16T07:07:27.234Z,15.40
2023-03-16T07:09:53.942Z,15.40
2023-03-16T07:12:20.896Z,15.30
2023-03-16T07:14:51.259Z,14.90
2023-03-16T07:17:19.150Z,15.50
2023-03-16T07:19:45.856Z,16.10
2023-03-16T07:22:12.697Z,16.30
2023-03-16T07:24:39.482Z,16.40
2023-03-16T07:27:06.213Z,16.50
2023-03-16T07:29:34.236Z,16.90
2023-03-16T07:32:01.016Z,17.70
2023-03-16T07:34:27.705Z,18.20
2023-03-16T07:36:54.388Z,18.70
2023-03-16T07:39:24.086Z,18.90
2023-03-16T07:41:51.441Z,18.10
2023-03-16T07:44:18.151Z,16.60
2023-03-16T07:46:44.873Z,16.10
2023-03-16T07:49:12.278Z,16.30
2023-03-16T07:51:39.027Z,15.90
2023-03-16T07:54:05.914Z,16.00
2023-03-16T07:56:47.511Z,16.90
2023-03-16T07:59:15.323Z,17.20
2023-03-16T08:01:41.975Z,18.20
2023-03-16T08:04:09.970Z,17.70
2023-03-16T08:06:36.536Z,17.30
2023-03-16T08:09:03.180Z,17.70
2023-03-16T08:11:29.791Z,17.50
2023-03-16T08:13:57.530Z,17.50
2023-03-16T08:16:24.258Z,18.50
2023-03-16T08:18:51.919Z,18.90
2023-03-16T08:21:19.157Z,18.90
2023-03-16T08:23:49.304Z,20.10
2023-03-16T08:26:19.906Z,17.40
2023-03-16T08:28:47.634Z,17.20
2023-03-16T08:31:15.226Z,16.30
2023-03-16T08:33:42.791Z,15.50
2023-03-16T08:36:11.761Z,17.40
2023-03-16T08:38:40.083Z,18.10
2023-03-16T08:41:06.958Z,19.50
2023-03-16T08:43:33.731Z,19.50
2023-03-16T08:46:01.796Z,19.00
2023-03-16T08:48:29.930Z,19.10
2023-03-16T08:50:56.553Z,20.70
2023-03-16T08:53:23.222Z,21.50
2023-03-16T08:55:49.987Z,19.40
2023-03-16T08:58:16.640Z,18.70
2023-03-16T09:00:46.457Z,18.50
2023-03-16T09:03:13.723Z,18.10
2023-03-16T09:05:40.443Z,17.70
2023-03-16T09:08:07.190Z,18.40
2023-03-16T09:10:33.848Z,18.40
2023-03-16T09:13:00.900Z,18.20
2023-03-16T09:15:27.576Z,17.80
2023-03-16T09:17:54.609Z,19.10
2023-03-16T09:20:25.914Z,19.00
2023-03-16T09:22:54.594Z,19.40
2023-03-16T09:25:21.325Z,20.10
2023-03-16T09:27:48.042Z,19.30
2023-03-16T09:30:16.698Z,18.50
2023-03-16T09:32:43.734Z,17.70
2023-03-16T09:35:10.575Z,17.40
2023-03-16T09:37:44.915Z,18.70
2023-03-16T09:40:24.795Z,16.90
2023-03-16T09:43:00.611Z,16.20
2023-03-16T09:45:38.666Z,16.20
2023-03-16T09:48:05.816Z,16.90
2023-03-16T09:50:48.448Z,18.00
2023-03-16T09:53:24.860Z,17.80
2023-03-16T09:55:58.272Z,18.30
2023-03-16T09:58:24.968Z,17.90
2023-03-16T10:00:58.821Z,16.30
2023-03-16T10:03:25.484Z,15.30
2023-03-16T10:05:57.161Z,15.10
2023-03-16T10:08:25.195Z,15.60
2023-03-16T10:11:10.851Z,15.50
2023-03-16T10:13:40.552Z,15.40
2023-03-16T10:16:17.411Z,16.30
2023-03-16T10:18:46.150Z,15.70
2023-03-16T10:21:14.738Z,14.00
2023-03-16T10:23:42.012Z,13.70
2023-03-16T10:26:31.674Z,13.90
2023-03-16T10:29:01.133Z,12.90
2023-03-16T10:31:30.372Z,12.80
2023-03-16T10:34:02.601Z,12.20
2023-03-16T10:36:34.597Z,11.80
2023-03-16T10:39:05.698Z,11.40
2023-03-16T10:41:37.353Z,11.30
2023-03-16T10:44:13.513Z,11.70
2023-03-16T10:46:50.816Z,12.20
2023-03-16T10:49:20.142Z,12.50
2023-03-16T10:51:46.934Z,12.60
2023-03-16T10:54:21.789Z,13.50
2023-03-16T10:56:50.695Z,14.00
2023-03-16T10:59:28.088Z,14.30
2023-03-16T11:01:55.095Z,14.60
2023-03-16T11:04:21.766Z,13.80
2023-03-16T11:06:51.456Z,13.50
2023-03-16T11:09:23.810Z,13.30
2023-03-16T11:11:50.613Z,13.10
2023-03-16T11:14:20.411Z,13.30
2023-03-16T11:16:53.244Z,13.60
2023-03-16T11:20:00.382Z,12.80
2023-03-16T11:22:27.554Z,13.00
2023-03-16T11:25:04.269Z,13.10
2023-03-16T11:27:35.100Z,13.00
2023-03-16T11:30:23.896Z,13.00
2023-03-16T11:32:53.421Z,13.80
2023-03-16T11:35:56.356Z,14.30
2023-03-16T11:38:31.492Z,14.10
2023-03-16T11:41:02.773Z,14.00
2023-03-16T11:43:32.352Z,13.70
2023-03-16T11:46:17.423Z,13.70
2023-03-16T11:48:53.516Z,13.30
2023-03-16T11:51:20.131Z,13.10
2023-03-16T11:53:49.436Z,12.60
2023-03-16T11:56:20.709Z,12.30
2023-03-16T11:59:02.570Z,12.30
2023-03-16T12:01:30.747Z,11.50
2023-03-16T12:04:02.145Z,11.40
2023-03-16T12:06:38.718Z,11.40
2023-03-16T12:09:14.693Z,11.50
2023-03-16T12:11:44.685Z,11.50
2023-03-16T12:14:11.246Z,11.60
2023-03-16T12:16:50.350Z,11.60
2023-03-16T12:19:28.618Z,11.70
2023-03-16T12:22:01.262Z,11.70
2023-03-16T12:24:32.178Z,11.10
2023-03-16T12:26:59.818Z,11.00
2023-03-16T12:29:35.484Z,11.20
2023-03-16T12:32:08.355Z,11.30
2023-03-16T12:34:38.593Z,11.40
2023-03-16T12:37:36.113Z,11.40
2023-03-16T12:40:08.005Z,11.70
2023-03-16T12:42:53.249Z,11.80
2023-03-16T12:45:38.450Z,11.60
2023-03-16T12:48:07.964Z,12.00
2023-03-16T12:50:34.824Z,11.80
2023-03-16T12:53:01.492Z,11.20
2023-03-16T12:55:34.536Z,11.30
2023-03-16T12:58:02.776Z,11.70
2023-03-16T13:00:34.756Z,11.80
2023-03-16T13:03:02.362Z,11.90
2023-03-16T13:05:34.621Z,12.00
2023-03-16T13:08:11.777Z,11.70
2023-03-16T13:10:38.816Z,11.70
2023-03-16T13:13:11.348Z,11.80
2023-03-16T13:15:39.764Z,12.00
2023-03-16T13:18:06.673Z,11.80
2023-03-16T13:20:34.843Z,11.70
2023-03-16T13:23:28.851Z,11.60
2023-03-16T13:26:03.981Z,11.70
2023-03-16T13:28:36.277Z,12.00
2023-03-16T13:31:04.841Z,11.80
2023-03-16T13:33:33.163Z,11.60
2023-03-16T13:36:00.516Z,11.60
2023-03-16T13:38:28.673Z,11.80
2023-03-16T13:40:56.980Z,11.90
2023-03-16T13:43:32.798Z,12.10
2023-03-16T13:45:59.695Z,12.30
2023-03-16T13:48:26.457Z,12.50
2023-03-16T13:50:54.534Z,12.50
2023-03-16T13:53:24.670Z,12.70
2023-03-16T13:55:52.360Z,12.70
2023-03-16T13:58:22.151Z,12.20
2023-03-16T14:00:48.872Z,12.10
2023-03-16T14:03:20.064Z,11.90
2023-03-16T14:05:47.682Z,11.90
2023-03-16T14:08:23.309Z,12.00
2023-03-16T14:10:50.959Z,12.10
2023-03-16T14:13:25.576Z,12.00
2023-03-16T14:16:01.120Z,12.10
2023-03-16T14:18:32.259Z,11.80
2023-03-16T14:20:58.971Z,11.50
2023-03-16T14:23:28.540Z,11.30
2023-03-16T14:25:55.420Z,11.30
2023-03-16T14:28:27.045Z,11.30
2023-03-16T14:30:55.412Z,11.30
2023-03-16T14:33:29.982Z,11.40
2023-03-16T14:35:57.931Z,11.40
2023-03-16T14:38:36.185Z,11.70
2023-03-16T14:41:04.911Z,12.00
2023-03-16T14:43:36.672Z,12.10
2023-03-16T14:46:05.538Z,12.10
2023-03-16T14:48:32.873Z,12.00
2023-03-16T14:51:01.692Z,12.00
2023-03-16T14:53:28.995Z,12.10
2023-03-16T14:55:56.693Z,12.10
2023-03-16T14:58:23.902Z,12.10
2023-03-16T15:00:53.634Z,12.20
2023-03-16T15:03:22.457Z,12.40
2023-03-16T15:05:50.286Z,12.50
2023-03-16T15:08:26.618Z,12.50
2023-03-16T15:10:54.448Z,12.30
2023-03-16T15:13:46.974Z,12.10
2023-03-16T15:16:14.336Z,12.20
2023-03-16T15:18:42.002Z,12.30
2023-03-16T15:21:29.579Z,12.20
2023-03-16T15:23:58.788Z,12.10
2023-03-16T15:26:27.378Z,12.00
2023-03-16T15:28:55.292Z,12.10
2023-03-16T15:31:22.132Z,12.10
2023-03-16T15:33:49.081Z,12.30
2023-03-16T15:36:16.906Z,12.20
2023-03-16T15:38:45.703Z,12.20
2023-03-16T15:41:12.451Z,12.10
2023-03-16T15:43:39.667Z,12.10
2023-03-16T15:46:06.820Z,12.10
2023-03-16T15:48:33.809Z,12.20
2023-03-16T15:51:02.152Z,11.90
2023-03-16T15:53:35.715Z,11.90
2023-03-16T15:56:04.569Z,11.80
2023-03-16T15:58:32.613Z,11.80
2023-03-16T16:01:00.157Z,11.80
2023-03-16T16:03:27.653Z,11.70
2023-03-16T16:05:54.855Z,11.60
2023-03-16T16:08:21.544Z,11.50
2023-03-16T16:10:49.008Z,11.50
2023-03-16T16:13:18.121Z,11.50
2023-03-16T16:15:45.359Z,11.50
2023-03-16T16:18:26.562Z,11.40
2023-03-16T16:20:53.987Z,11.30
2023-03-16T16:23:21.006Z,11.30
2023-03-16T16:25:48.125Z,11.30
2023-03-16T16:28:16.493Z,11.20
2023-03-16T16:30:43.422Z,11.20
2023-03-16T16:33:25.457Z,11.20
2023-03-16T16:35:53.319Z,11.10
2023-03-16T16:38:20.021Z,11.10
2023-03-16T16:40:47.572Z,11.10
2023-03-16T16:43:26.860Z,11.00
2023-03-16T16:45:53.703Z,10.90
2023-03-16T16:48:40.640Z,10.90
2023-03-16T16:51:15.248Z,10.80
2023-03-16T16:53:42.116Z,10.80
2023-03-16T16:56:16.293Z,10.80
2023-03-16T16:58:43.822Z,10.60
2023-03-16T17:01:15.774Z,10.60
2023-03-16T17:03:42.614Z,10.50
2023-03-16T17:06:15.563Z,10.50
2023-03-16T17:08:45.872Z,10.40
2023-03-16T17:11:18.290Z,10.40
2023-03-16T17:13:46.929Z,10.30
2023-03-16T17:16:16.662Z,10.30
2023-03-16T17:18:44.164Z,10.10
2023-03-16T17:21:12.845Z,10.10
2023-03-16T17:23:39.609Z,10.10
2023-03-16T17:26:17.546Z,10.00
2023-03-16T17:29:11.526Z,9.90
2023-03-16T17:31:39.755Z,9.90
2023-03-16T17:34:16.635Z,9.80
2023-03-16T17:36:43.886Z,9.70
2023-03-16T17:39:17.256Z,9.60
2023-03-16T17:41:44.317Z,9.50
2023-03-16T17:44:12.819Z,9.40
2023-03-16T17:46:40.135Z,9.40
2023-03-16T17:49:13.641Z,9.30
2023-03-16T17:51:40.985Z,9.30
2023-03-16T17:54:07.737Z,9.20
2023-03-16T17:56:34.699Z,9.20
2023-03-16T17:59:06.507Z,9.10
2023-03-16T18:01:34.409Z,9.10
2023-03-16T18:04:01.633Z,9.10
2023-03-16T18:06:29.772Z,9.00
2023-03-16T18:08:57.170Z,8.90
2023-03-16T18:11:35.503Z,8.80
2023-03-16T18:14:04.038Z,8.80
2023-03-16T18:16:31.401Z,8.80
2023-03-16T18:19:05.873Z,8.70
2023-03-16T18:21:33.456Z,8.60
2023-03-16T18:24:00.250Z,8.50
2023-03-16T18:26:27.874Z,8.50
2023-03-16T18:28:55.915Z,8.40
2023-03-16T18:31:25.068Z,8.40
2023-03-16T18:34:02.605Z,8.30
2023-03-16T18:36:30.829Z,8.10
2023-03-16T18:38:58.735Z,8.10
2023-03-16T18:41:29.540Z,8.10
2023-03-16T18:43:57.683Z,7.90
2023-03-16T18:46:24.492Z,7.90
2023-03-16T18:48:52.633Z,7.80
2023-03-16T18:51:20.283Z,7.80
2023-03-16T18:53:47.409Z,7.80
2023-03-16T18:56:24.620Z,7.60
2023-03-16T18:58:52.848Z,7.60
2023-03-16T19:01:30.158Z,7.50
2023-03-16T19:03:58.059Z,7.50
2023-03-16T19:06:29.411Z,7.40
2023-03-16T19:09:17.440Z,7.40
2023-03-16T19:11:44.610Z,7.30
2023-03-16T19:14:22.622Z,7.20
2023-03-16T19:16:49.449Z,7.10
2023-03-16T19:19:17.143Z,7.10
2023-03-16T19:21:43.856Z,7.00
2023-03-16T19:24:19.077Z,6.80
2023-03-16T19:26:46.011Z,6.90
2023-03-16T19:29:14.125Z,6.90
2023-03-16T19:31:41.771Z,6.80
2023-03-16T19:34:15.983Z,6.70
2023-03-16T19:36:42.624Z,6.80
2023-03-16T19:39:12.563Z,6.80
2023-03-16T19:41:39.679Z,6.70
2023-03-16T19:44:17.503Z,6.80
2023-03-16T19:46:44.586Z,6.80
2023-03-16T19:49:40.762Z,6.70
2023-03-16T19:52:10.888Z,6.80
2023-03-16T19:54:39.512Z,6.80
2023-03-16T19:57:14.318Z,6.80
2023-03-16T19:59:42.129Z,6.70
2023-03-16T20:02:27.224Z,6.80
2023-03-16T20:04:54.767Z,6.90
2023-03-16T20:07:21.746Z,6.80
2023-03-16T20:09:48.681Z,6.80
2023-03-16T20:12:18.487Z,6.80
2023-03-16T20:14:45.320Z,6.70
2023-03-16T20:17:15.145Z,6.80
2023-03-16T20:19:41.867Z,6.70
2023-03-16T20:22:17.218Z,6.70
2023-03-16T20:24:44.592Z,6.60
2023-03-16T20:27:12.537Z,6.70
2023-03-16T20:29:39.315Z,6.60
2023-03-16T20:32:08.223Z,6.50
2023-03-16T20:34:34.981Z,6.60
2023-03-16T20:37:01.905Z,6.60
2023-03-16T20:39:28.650Z,6.60
2023-03-16T20:41:55.544Z,6.60
2023-03-16T20:44:25.312Z,6.50
2023-03-16T20:46:52.313Z,6.50
2023-03-16T20:49:21.928Z,6.50
2023-03-16T20:51:49.532Z,6.40
2023-03-16T20:54:16.199Z,6.50
2023-03-16T20:56:43.035Z,6.40
2023-03-16T20:59:16.998Z,6.20
2023-03-16T21:01:45.730Z,6.10
2023-03-16T21:04:27.872Z,6.00
2023-03-16T21:06:55.842Z,5.90
2023-03-16T21:09:22.555Z,5.80
2023-03-16T21:11:49.463Z,5.70
2023-03-16T21:14:17.725Z,5.70
2023-03-16T21:16:44.732Z,5.60
2023-03-16T21:19:16.185Z,5.50
2023-03-16T21:21:42.939Z,5.40
2023-03-16T21:24:09.690Z,5.40
2023-03-16T21:26:37.335Z,5.40
2023-03-16T21:29:06.889Z,5.40
2023-03-16T21:31:33.938Z,5.40
2023-03-16T21:34:00.802Z,5.50
2023-03-16T21:36:27.465Z,5.40
2023-03-16T21:38:55.040Z,5.30
2023-03-16T21:41:21.906Z,5.30
2023-03-16T21:43:49.965Z,5.20
2023-03-16T21:46:21.485Z,5.20
2023-03-16T21:48:52.778Z,5.10
2023-03-16T21:51:20.952Z,5.10
2023-03-16T21:53:48.791Z,5.10
2023-03-16T21:56:17.339Z,5.20
2023-03-16T21:58:44.432Z,5.10
2023-03-16T22:01:20.419Z,5.10
2023-03-16T22:03:50.809Z,5.00
2023-03-16T22:06:18.051Z,5.00
2023-03-16T22:08:44.758Z,5.00
2023-03-16T22:11:16.207Z,4.90
2023-03-16T22:13:42.811Z,4.90
2023-03-16T22:16:13.911Z,4.90
2023-03-16T22:18:40.598Z,4.80
2023-03-16T22:21:18.557Z,4.80
2023-03-16T22:23:45.635Z,4.70
2023-03-16T22:26:15.379Z,4.70
2023-03-16T22:28:42.338Z,4.80
2023-03-16T22:31:13.395Z,4.70
2023-03-16T22:33:40.490Z,4.60
2023-03-16T22:36:09.325Z,4.70
2023-03-16T22:38:36.441Z,4.60
2023-03-16T22:41:03.213Z,4.50
2023-03-16T22:43:31.640Z,4.50
2023-03-16T22:45:59.164Z,4.50
2023-03-16T22:48:27.232Z,4.50
2023-03-16T22:50:54.798Z,4.50
2023-03-16T22:53:48.344Z,4.40
2023-03-16T22:56:15.403Z,4.50
2023-03-16T22:58:43.695Z,4.50
2023-03-16T23:01:19.641Z,4.50
2023-03-16T23:03:47.433Z,4.50
2023-03-16T23:06:18.870Z,4.50
2023-03-16T23:08:45.457Z,4.50
2023-03-16T23:11:32.392Z,4.50
2023-03-16T23:14:00.455Z,4.50
2023-03-16T23:16:29.205Z,4.50
2023-03-16T23:18:56.327Z,4.50
2023-03-16T23:21:24.685Z,4.40
2023-03-16T23:24:03.106Z,4.50
2023-03-16T23:26:31.242Z,4.50
2023-03-16T23:28:58.298Z,4.50
2023-03-16T23:31:26.045Z,4.50
2023-03-16T23:33:52.707Z,4.50
2023-03-16T23:36:20.768Z,4.50
2023-03-16T23:38:48.687Z,4.40
2023-03-16T23:41:17.287Z,4.30
2023-03-16T23:43:44.772Z,4.30
2023-03-16T23:46:12.903Z,4.40
2023-03-16T23:48:41.522Z,4.20
2023-03-16T23:51:12.379Z,4.20
2023-03-16T23:53:40.405Z,4.20
2023-03-16T23:56:09.860Z,4.20
2023-03-16T23:58:36.770Z,4.20
